Time;durP1;ratioP1;P1;durP2;ratioP2;P2;SDS_P1;SDS_P2;PMS_P1;PMS_P2;Temp;Humidity;BMP_temperature;BMP_pressure;BME280_temperature;BME280_humidity;BME280_pressure;Samples;Min_cycle;Max_cycle;Signal;HPM_P1;HPM_P2
2023/09/06 00:02:04;;;;;;;1.40;1.30;;;;;;;21.22;58.75;101865.50;4962911;28;100013;-62
2023/09/06 00:04:29;;;;;;;3.20;1.60;;;;;;;21.22;58.72;101865.50;4967432;28;98249;-62
2023/09/06 00:06:55;;;;;;;1.50;1.40;;;;;;;21.21;58.74;101858.41;4965927;28;96719;-62
2023/09/06 00:09:20;;;;;;;1.33;1.23;;;;;;;21.16;58.76;101859.28;4968849;28;97184;-63
2023/09/06 00:11:46;;;;;;;1.30;1.20;;;;;;;21.09;58.91;101857.88;4964013;28;100961;-63
2023/09/06 00:14:12;;;;;;;1.90;1.80;;;;;;;21.12;59.22;101856.78;4962102;28;97069;-63
2023/09/06 00:16:37;;;;;;;1.40;1.30;;;;;;;21.12;58.76;101858.84;4968164;28;96748;-63
2023/09/06 00:19:03;;;;;;;1.40;1.30;;;;;;;21.11;58.88;101855.28;4969297;28;97447;-63
2023/09/06 00:21:28;;;;;;;3.33;1.60;;;;;;;21.11;58.88;101843.31;4967953;28;97120;-63
2023/09/06 00:23:53;;;;;;;1.67;1.57;;;;;;;21.10;58.89;101842.56;4966608;28;97424;-63
2023/09/06 00:26:19;;;;;;;1.73;1.40;;;;;;;21.07;58.81;101854.09;4970180;28;97259;-63
2023/09/06 00:28:45;;;;;;;1.40;1.33;;;;;;;21.02;58.97;101840.91;4966085;28;103086;-63
2023/09/06 00:31:11;;;;;;;1.40;1.20;;;;;;;21.00;58.98;101849.88;4967827;28;97341;-62
2023/09/06 00:33:36;;;;;;;1.33;1.20;;;;;;;20.98;59.03;101855.25;4966717;28;97225;-63
2023/09/06 00:36:03;;;;;;;1.37;1.27;;;;;;;20.95;58.96;101842.31;4964136;28;104054;-63
2023/09/06 00:38:28;;;;;;;1.37;1.20;;;;;;;20.90;59.03;101843.91;4964634;28;97475;-63
2023/09/06 00:40:54;;;;;;;2.33;1.10;;;;;;;20.91;59.22;101853.84;4964778;28;96941;-63
2023/09/06 00:43:19;;;;;;;1.83;1.07;;;;;;;20.88;58.91;101854.91;4958808;28;97479;-63
2023/09/06 00:45:50;;;;;;;1.47;1.37;;;;;;;20.89;59.07;101858.44;4965123;28;97282;-63
2023/09/06 00:48:26;;;;;;;1.63;1.53;;;;;;;20.88;59.60;101857.69;4964856;28;96869;-63
2023/09/06 00:50:56;;;;;;;3.07;1.20;;;;;;;20.89;59.07;101850.06;4964834;28;97420;-63
2023/09/06 00:53:23;;;;;;;1.93;1.00;;;;;;;20.89;59.02;101855.66;4965714;28;96979;-63
2023/09/06 00:55:49;;;;;;;1.13;1.03;;;;;;;20.88;59.13;101852.09;4968561;28;97403;-63
2023/09/06 00:58:16;;;;;;;2.90;1.20;;;;;;;20.89;59.20;101855.66;4965377;28;97143;-63
2023/09/06 01:00:45;;;;;;;1.40;1.30;;;;;;;20.87;59.35;101856.19;4955372;28;97404;-63
2023/09/06 01:03:11;;;;;;;1.20;1.10;;;;;;;20.80;59.06;101868.00;4967357;28;97025;-62
2023/09/06 01:05:44;;;;;;;1.23;1.13;;;;;;;20.81;59.29;101852.00;4970616;28;97429;-62
2023/09/06 01:08:13;;;;;;;1.67;1.47;;;;;;;20.78;59.26;101841.84;4970435;28;97142;-63
2023/09/06 01:10:38;;;;;;;1.30;1.20;;;;;;;20.73;59.15;101840.66;4967347;28;96957;-62
2023/09/06 01:13:03;;;;;;;1.27;1.20;;;;;;;20.70;59.11;101847.34;4968201;28;97607;-62
2023/09/06 01:15:29;;;;;;;1.50;1.40;;;;;;;20.69;59.15;101847.84;4971922;28;97386;-63
2023/09/06 01:17:55;;;;;;;1.20;1.10;;;;;;;20.67;59.26;101851.19;4970202;28;97157;-62
2023/09/06 01:20:45;;;;;;;2.00;1.90;;;;;;;20.63;60.00;101839.56;4965020;28;96760;-62
2023/09/06 01:23:44;;;;;;;1.50;1.40;;;;;;;20.58;60.02;101848.03;4966758;28;97186;-63
2023/09/06 01:26:09;;;;;;;1.57;1.47;;;;;;;20.50;59.19;101858.34;4956005;28;97587;-64
2023/09/06 01:28:35;;;;;;;1.77;1.10;;;;;;;20.44;59.33;101847.28;4968282;28;96784;-63
2023/09/06 01:31:01;;;;;;;1.60;1.50;;;;;;;20.36;59.52;101860.34;4967982;28;97686;-64
2023/09/06 01:33:30;;;;;;;1.37;1.00;;;;;;;20.32;59.66;101859.13;4968505;28;97558;-63
2023/09/06 01:35:56;;;;;;;2.13;1.47;;;;;;;20.23;59.60;101859.53;4967253;28;96961;-63
2023/09/06 01:38:22;;;;;;;1.40;1.30;;;;;;;20.20;59.82;101847.34;4967145;28;97030;-63
2023/09/06 01:40:47;;;;;;;1.90;1.50;;;;;;;20.20;59.91;101855.75;4965988;28;97171;-64
2023/09/06 01:43:13;;;;;;;1.87;1.27;;;;;;;20.21;59.70;101853.72;4969920;28;104308;-63
2023/09/06 01:45:45;;;;;;;1.40;1.30;;;;;;;20.20;59.90;101850.16;4967310;28;97285;-64
2023/09/06 01:48:11;;;;;;;1.63;1.53;;;;;;;20.14;59.69;101846.66;4968731;28;97243;-64
2023/09/06 01:50:37;;;;;;;1.53;1.43;;;;;;;20.14;59.60;101863.44;4966782;28;96983;-63
2023/09/06 01:53:02;;;;;;;3.33;1.37;;;;;;;20.13;59.61;101853.56;4966735;28;97220;-64
2023/09/06 01:55:27;;;;;;;1.70;1.60;;;;;;;20.08;59.64;101859.97;4968622;28;97180;-63
2023/09/06 01:57:53;;;;;;;1.50;1.40;;;;;;;20.04;59.82;101857.50;4971130;28;97104;-63
2023/09/06 02:00:28;;;;;;;1.73;1.63;;;;;;;20.05;59.86;101853.41;4970529;28;97048;-63
2023/09/06 02:03:00;;;;;;;2.67;1.43;;;;;;;20.06;59.94;101859.75;4967500;28;97196;-63
2023/09/06 02:05:25;;;;;;;1.60;1.50;;;;;;;20.07;59.95;101847.28;4972058;28;97118;-63
2023/09/06 02:07:51;;;;;;;1.70;1.60;;;;;;;20.05;59.88;101858.97;4967183;28;97284;-63
2023/09/06 02:10:16;;;;;;;1.57;1.47;;;;;;;20.06;59.75;101854.16;4969056;28;96985;-63
2023/09/06 02:12:42;;;;;;;3.00;1.50;;;;;;;20.06;59.89;101856.94;4966818;28;96882;-64
2023/09/06 02:15:10;;;;;;;2.13;1.40;;;;;;;20.06;59.85;101856.94;4966860;28;98132;-64
2023/09/06 02:17:35;;;;;;;1.67;1.57;;;;;;;20.05;59.87;101855.47;4966241;28;97295;-64
2023/09/06 02:20:12;;;;;;;1.43;1.33;;;;;;;20.04;59.96;101867.91;4971687;28;97304;-63
2023/09/06 02:22:39;;;;;;;3.43;1.50;;;;;;;20.02;60.07;101862.09;4972048;28;97420;-63
2023/09/06 02:25:06;;;;;;;1.30;1.20;;;;;;;19.99;59.86;101865.94;4970335;28;97202;-64
2023/09/06 02:27:33;;;;;;;1.57;1.40;;;;;;;19.89;60.08;101862.03;4972414;28;101614;-63
2023/09/06 02:29:59;;;;;;;1.50;1.40;;;;;;;19.83;59.91;101866.94;4964844;28;97274;-63
2023/09/06 02:32:26;;;;;;;9.93;1.43;;;;;;;19.78;60.02;101867.75;4965575;28;97380;-63
2023/09/06 02:34:51;;;;;;;1.33;1.23;;;;;;;19.77;60.39;101869.78;4964243;28;97136;-63
2023/09/06 02:37:17;;;;;;;1.67;1.47;;;;;;;19.76;60.47;101873.88;4966667;28;97218;-63
2023/09/06 02:39:42;;;;;;;1.67;1.20;;;;;;;19.77;60.27;101871.81;4969862;28;97838;-63
2023/09/06 02:42:07;;;;;;;1.30;1.20;;;;;;;19.77;60.28;101869.03;4965272;28;97169;-63
2023/09/06 02:44:32;;;;;;;1.60;1.50;;;;;;;19.76;60.14;101881.50;4966613;28;96922;-63
2023/09/06 02:46:58;;;;;;;1.57;1.20;;;;;;;19.73;60.17;101879.75;4963884;28;97026;-63
2023/09/06 02:49:26;;;;;;;1.40;1.30;;;;;;;19.66;60.21;101885.94;4972365;28;97219;-63
2023/09/06 02:51:51;;;;;;;1.40;1.30;;;;;;;19.58;60.19;101882.97;4969308;28;96832;-63
2023/09/06 02:54:17;;;;;;;1.20;1.10;;;;;;;19.59;60.23;101883.72;4970691;28;97116;-63
2023/09/06 02:56:45;;;;;;;2.13;1.20;;;;;;;19.52;60.46;101890.66;4968361;28;97118;-63
2023/09/06 02:59:14;;;;;;;1.60;1.50;;;;;;;19.54;60.42;101901.28;4968098;28;97493;-63
2023/09/06 03:01:44;;;;;;;1.10;1.10;;;;;;;19.53;60.29;101903.31;4967246;28;97817;-63
2023/09/06 03:04:13;;;;;;;1.40;1.30;;;;;;;19.52;60.28;101901.06;4969433;28;96862;-63
2023/09/06 03:06:38;;;;;;;2.33;1.80;;;;;;;19.47;60.19;101897.06;4968195;28;97450;-63
2023/09/06 03:09:06;;;;;;;2.20;1.60;;;;;;;19.42;60.34;101895.84;4966927;28;97220;-63
2023/09/06 03:11:32;;;;;;;1.30;1.20;;;;;;;19.41;60.38;101897.13;4965487;28;97045;-63
2023/09/06 03:13:57;;;;;;;1.70;1.60;;;;;;;19.41;60.58;101897.13;4966386;28;97594;-63
2023/09/06 03:16:22;;;;;;;1.30;1.20;;;;;;;19.44;60.72;101893.28;4968513;28;96716;-63
2023/09/06 03:18:52;;;;;;;1.93;1.60;;;;;;;19.46;60.37;101909.50;4964679;28;97419;-63
2023/09/06 03:21:18;;;;;;;1.90;1.43;;;;;;;19.46;60.51;101903.16;4967676;28;98949;-63
2023/09/06 03:23:44;;;;;;;2.07;1.30;;;;;;;19.45;60.37;101910.78;4964120;28;97581;-63
2023/09/06 03:26:10;;;;;;;1.20;1.10;;;;;;;19.40;60.20;101898.41;4970671;28;97004;-64
2023/09/06 03:28:41;;;;;;;1.20;1.10;;;;;;;19.37;60.37;101905.00;4964133;28;97348;-63
2023/09/06 03:31:12;;;;;;;1.47;1.30;;;;;;;19.35;60.39;101898.47;4968497;28;97946;-63
2023/09/06 03:33:39;;;;;;;2.03;1.90;;;;;;;19.34;60.46;101894.13;4965525;28;97290;-63
2023/09/06 03:36:07;;;;;;;1.50;1.40;;;;;;;19.30;60.58;101902.78;4967896;28;97209;-63
2023/09/06 03:38:38;;;;;;;1.30;1.20;;;;;;;19.24;60.37;101893.69;4967806;28;97330;-63
2023/09/06 03:41:07;;;;;;;1.20;1.20;;;;;;;19.21;60.39;101900.34;4966149;28;97792;-63
2023/09/06 03:43:32;;;;;;;1.60;1.50;;;;;;;19.19;60.42;101899.34;4964269;28;96886;-64
2023/09/06 03:45:59;;;;;;;1.73;1.47;;;;;;;19.17;60.67;101905.47;4965336;28;97219;-63
2023/09/06 03:48:27;;;;;;;1.50;1.40;;;;;;;19.15;60.62;101901.69;4965220;28;97413;-63
2023/09/06 03:50:57;;;;;;;1.40;1.30;;;;;;;19.12;60.71;101908.28;4964990;28;97342;-63
2023/09/06 03:53:26;;;;;;;1.70;1.20;;;;;;;19.07;60.69;101904.28;4967844;28;97211;-63
2023/09/06 03:55:57;;;;;;;1.40;1.17;;;;;;;19.07;60.70;101911.88;4969336;28;96930;-63
2023/09/06 03:58:25;;;;;;;1.20;1.20;;;;;;;19.07;60.87;101903.50;4969286;28;97208;-63
2023/09/06 04:00:52;;;;;;;1.07;0.97;;;;;;;19.07;60.73;101907.06;4962071;28;97704;-63
2023/09/06 04:03:18;;;;;;;1.70;1.30;;;;;;;19.08;60.73;101903.00;4964325;28;98396;-63
2023/09/06 04:05:45;;;;;;;1.83;1.20;;;;;;;19.07;60.67;101904.28;4965316;28;97251;-63
2023/09/06 04:08:11;;;;;;;1.40;1.30;;;;;;;19.07;60.75;101907.06;4966564;28;96979;-63
2023/09/06 04:10:38;;;;;;;2.10;1.47;;;;;;;19.06;60.69;101913.19;4969944;28;98163;-63
2023/09/06 04:13:05;;;;;;;1.73;1.30;;;;;;;19.07;60.79;101906.31;4967291;28;97149;-63
2023/09/06 04:15:34;;;;;;;1.70;1.60;;;;;;;19.07;60.83;101901.47;4963736;28;97042;-63
2023/09/06 04:18:01;;;;;;;1.20;1.10;;;;;;;19.09;60.85;101904.50;4968388;28;96852;-63
2023/09/06 04:20:31;;;;;;;1.53;1.43;;;;;;;19.08;60.70;101911.38;4964555;28;97415;-64
2023/09/06 04:22:58;;;;;;;1.50;1.40;;;;;;;19.07;60.76;101901.47;4965457;28;97684;-63
2023/09/06 04:25:26;;;;;;;1.60;1.50;;;;;;;19.07;60.67;101909.09;4964395;28;97078;-63
2023/09/06 04:27:55;;;;;;;2.30;1.10;;;;;;;19.04;60.64;101908.13;4963318;28;97146;-63
2023/09/06 04:30:25;;;;;;;1.60;1.50;;;;;;;19.05;60.66;101900.50;4962656;28;97453;-63
2023/09/06 04:32:51;;;;;;;1.27;1.17;;;;;;;18.99;60.61;101899.78;4964649;28;96998;-63
2023/09/06 04:35:17;;;;;;;1.60;1.50;;;;;;;18.96;60.57;101896.00;4965462;28;96728;-63
2023/09/06 04:37:43;;;;;;;1.30;1.20;;;;;;;18.91;60.50;101908.00;4965723;28;96839;-63
2023/09/06 04:40:14;;;;;;;2.43;1.40;;;;;;;18.86;60.52;101906.00;4964361;28;97467;-64
2023/09/06 04:42:42;;;;;;;1.43;1.23;;;;;;;18.83;60.57;101909.81;4962020;28;99296;-63
2023/09/06 04:45:10;;;;;;;1.33;1.27;;;;;;;18.81;60.48;101911.59;4969343;28;97120;-63
2023/09/06 04:47:36;;;;;;;1.27;1.17;;;;;;;18.74;60.61;101912.91;4965250;28;97463;-63
2023/09/06 04:50:03;;;;;;;1.70;1.60;;;;;;;18.67;60.70;101908.66;4966539;28;97190;-64
2023/09/06 04:52:29;;;;;;;2.60;1.23;;;;;;;18.65;60.94;101905.63;4966469;28;97220;-63
2023/09/06 04:54:54;;;;;;;1.40;1.20;;;;;;;18.65;60.82;101907.69;4968138;28;97339;-64
2023/09/06 04:57:20;;;;;;;5.60;1.50;;;;;;;18.63;60.76;101908.19;4967996;28;96910;-63
2023/09/06 04:59:46;;;;;;;1.33;1.27;;;;;;;18.63;60.84;101910.25;4964649;28;97188;-63
2023/09/06 05:02:11;;;;;;;1.27;1.17;;;;;;;18.61;60.63;101912.78;4968359;28;97298;-64
2023/09/06 05:04:37;;;;;;;3.00;1.13;;;;;;;18.59;60.96;101916.09;4967505;28;100417;-63
2023/09/06 05:07:05;;;;;;;2.00;1.17;;;;;;;18.58;60.72;101916.59;4963170;28;100656;-63
2023/09/06 05:09:32;;;;;;;1.27;1.17;;;;;;;18.58;60.90;101927.75;4963007;28;97418;-63
2023/09/06 05:11:57;;;;;;;1.03;1.03;;;;;;;18.56;60.92;101930.31;4958976;28;98958;-63
2023/09/06 05:14:22;;;;;;;1.10;1.10;;;;;;;18.58;61.14;101936.88;4966648;28;96921;-63
2023/09/06 05:16:48;;;;;;;1.00;1.00;;;;;;;18.56;61.07;101930.31;4968243;28;97036;-63
2023/09/06 05:19:13;;;;;;;1.60;1.50;;;;;;;18.55;61.22;101920.41;4961419;28;100742;-63
2023/09/06 05:21:38;;;;;;;1.67;1.57;;;;;;;18.57;60.95;101923.44;4960887;28;97684;-63
2023/09/06 05:24:04;;;;;;;1.57;1.40;;;;;;;18.60;61.04;101925.97;4965543;28;97101;-63
2023/09/06 05:26:33;;;;;;;1.60;1.50;;;;;;;18.63;61.07;101935.34;4965111;28;96853;-63
2023/09/06 05:28:58;;;;;;;1.17;1.07;;;;;;;18.63;61.11;101930.50;4963455;28;97141;-63
2023/09/06 05:31:24;;;;;;;1.40;1.30;;;;;;;18.66;60.99;101934.28;4967589;28;97203;-63
2023/09/06 05:33:49;;;;;;;1.40;1.30;;;;;;;18.66;61.00;101923.91;4962381;28;97474;-63
2023/09/06 05:36:14;;;;;;;1.53;1.43;;;;;;;18.69;61.04;101933.25;4964615;28;101026;-63
2023/09/06 05:38:40;;;;;;;1.60;1.50;;;;;;;18.69;61.05;101931.22;4964506;28;97290;-63
2023/09/06 05:41:05;;;;;;;1.30;1.20;;;;;;;18.73;61.15;101946.91;4966599;28;97836;-63
2023/09/06 05:43:31;;;;;;;2.30;1.20;;;;;;;18.74;61.05;101932.44;4964318;28;97274;-63
2023/09/06 05:45:56;;;;;;;1.30;1.20;;;;;;;18.75;60.93;101933.97;4968450;28;97367;-63
2023/09/06 05:48:22;;;;;;;1.43;1.33;;;;;;;18.74;61.04;101935.22;4966694;28;97326;-63
2023/09/06 05:50:47;;;;;;;1.27;1.27;;;;;;;18.76;61.12;101932.69;4964402;28;96969;-63
2023/09/06 05:53:12;;;;;;;0.83;0.83;;;;;;;18.77;61.30;101942.56;4969921;28;96966;-63
2023/09/06 05:55:38;;;;;;;3.43;1.40;;;;;;;18.77;61.26;101950.94;4970854;28;96931;-63
2023/09/06 05:58:03;;;;;;;10.63;1.90;;;;;;;18.81;61.12;101945.81;4968846;28;98667;-63
2023/09/06 06:00:30;;;;;;;2.30;1.40;;;;;;;18.84;61.33;101949.63;4969400;28;97303;-63
2023/09/06 06:02:57;;;;;;;2.57;1.33;;;;;;;18.86;61.47;101956.19;4964316;28;97187;-63
2023/09/06 06:05:24;;;;;;;4.70;1.60;;;;;;;18.90;61.32;101959.44;4970405;28;97599;-63
2023/09/06 06:07:49;;;;;;;1.53;1.43;;;;;;;18.96;61.35;101965.00;4968670;28;97099;-63
2023/09/06 06:10:15;;;;;;;4.60;1.40;;;;;;;18.99;61.22;101956.34;4967581;28;96722;-63
2023/09/06 06:12:41;;;;;;;1.67;1.37;;;;;;;19.02;61.45;101960.91;4970006;28;97029;-63
2023/09/06 06:15:14;;;;;;;2.43;1.60;;;;;;;19.03;61.49;101967.97;4966945;28;96751;-63
2023/09/06 06:17:40;;;;;;;1.50;1.40;;;;;;;19.07;61.34;101960.06;4967052;28;99455;-63
2023/09/06 06:20:07;;;;;;;2.33;1.37;;;;;;;19.08;61.40;101964.38;4967018;28;97587;-63
2023/09/06 06:22:39;;;;;;;1.40;1.20;;;;;;;19.11;61.46;101974.50;4968086;28;96998;-63
2023/09/06 06:25:09;;;;;;;2.33;1.50;;;;;;;19.12;61.55;101970.44;4971555;28;97161;-63
2023/09/06 06:27:36;;;;;;;1.20;1.10;;;;;;;19.15;61.63;101969.41;4969598;28;97439;-63
2023/09/06 06:30:01;;;;;;;1.20;1.10;;;;;;;19.15;61.53;101972.19;4963663;28;97188;-63
2023/09/06 06:32:27;;;;;;;5.03;1.20;;;;;;;19.18;61.55;101971.13;4967674;28;96821;-63
2023/09/06 06:34:54;;;;;;;1.50;1.40;;;;;;;19.22;61.77;101974.41;4972532;28;97718;-63
2023/09/06 06:37:21;;;;;;;1.93;1.43;;;;;;;19.27;61.54;101968.03;4970717;28;97249;-63
2023/09/06 06:39:46;;;;;;;4.60;1.50;;;;;;;19.32;61.79;101972.03;4966094;28;97653;-63
2023/09/06 06:42:11;;;;;;;2.03;1.37;;;;;;;19.37;61.90;101976.84;4965217;28;97432;-63
2023/09/06 06:44:37;;;;;;;1.80;1.70;;;;;;;19.41;62.08;101969.69;4954577;28;97247;-63
2023/09/06 06:47:04;;;;;;;1.33;0.90;;;;;;;19.44;62.02;101971.44;4967493;28;97043;-63
2023/09/06 06:49:30;;;;;;;1.17;1.07;;;;;;;19.51;61.90;101983.28;4966922;28;98435;-63
2023/09/06 06:51:55;;;;;;;2.20;1.30;;;;;;;19.56;62.11;101977.66;4967631;28;97022;-63
2023/09/06 06:54:21;;;;;;;1.50;1.10;;;;;;;19.59;62.11;101981.44;4965935;28;97368;-64
2023/09/06 06:56:46;;;;;;;1.93;1.10;;;;;;;19.66;62.22;101981.63;4966686;28;97418;-64
2023/09/06 06:59:12;;;;;;;1.07;1.07;;;;;;;19.73;62.03;101988.66;4969966;28;97250;-63
2023/09/06 07:01:38;;;;;;;1.23;1.13;;;;;;;19.83;62.20;101987.03;4970001;28;97228;-63
2023/09/06 07:04:06;;;;;;;1.33;1.23;;;;;;;19.89;62.13;101984.94;4967435;28;97204;-64
2023/09/06 07:06:32;;;;;;;2.37;1.40;;;;;;;19.99;62.28;101994.44;4965862;28;97892;-63
2023/09/06 07:08:58;;;;;;;1.93;1.40;;;;;;;20.06;62.27;101993.88;4965700;28;97210;-65
2023/09/06 07:11:24;;;;;;;7.63;1.40;;;;;;;20.13;62.51;101991.25;4967749;28;97214;-63
2023/09/06 07:13:50;;;;;;;3.00;1.60;;;;;;;20.23;62.41;101996.47;4966528;28;96936;-63
2023/09/06 07:16:19;;;;;;;2.43;1.33;;;;;;;20.32;62.38;101994.06;4964063;28;98678;-63
2023/09/06 07:18:46;;;;;;;5.43;1.40;;;;;;;20.40;62.72;101994.97;4962524;28;98161;-63
2023/09/06 07:21:12;;;;;;;1.97;1.77;;;;;;;20.51;62.68;102000.41;4962870;28;97209;-62
2023/09/06 07:23:37;;;;;;;3.03;1.43;;;;;;;20.61;62.70;102004.34;4963681;28;97034;-65
2023/09/06 07:26:04;;;;;;;3.07;1.67;;;;;;;20.65;62.89;102007.59;4967958;28;97002;-63
2023/09/06 07:28:45;;;;;;;4.93;1.87;;;;;;;20.80;63.44;101999.50;4982676;28;99714;-63
2023/09/06 07:31:11;;;;;;;1.93;1.43;;;;;;;20.92;62.86;102000.09;4968638;28;97118;-63
2023/09/06 07:33:36;;;;;;;2.47;1.83;;;;;;;21.04;62.82;101995.09;4964261;28;97037;-63
2023/09/06 07:36:03;;;;;;;1.50;1.40;;;;;;;21.13;62.97;101997.47;4968435;28;97886;-63
2023/09/06 07:38:28;;;;;;;1.70;1.57;;;;;;;21.26;63.00;102001.06;4963828;28;96824;-64
2023/09/06 07:41:00;;;;;;;1.67;1.57;;;;;;;21.38;63.11;102007.25;4960613;28;97177;-63
2023/09/06 07:43:28;;;;;;;3.00;1.87;;;;;;;21.48;62.98;102005.53;4966932;28;97086;-63
2023/09/06 07:45:56;;;;;;;1.80;1.70;;;;;;;21.60;63.05;102006.84;4967698;28;97816;-63
2023/09/06 07:48:23;;;;;;;1.70;1.60;;;;;;;21.71;63.00;102005.91;4966969;28;97182;-63
2023/09/06 07:50:50;;;;;;;2.23;2.03;;;;;;;21.82;62.93;102006.41;4964205;28;97244;-63
2023/09/06 07:53:15;;;;;;;2.03;1.67;;;;;;;21.95;62.99;102005.72;4965768;28;97179;-63
2023/09/06 07:55:43;;;;;;;4.93;1.77;;;;;;;22.06;62.94;102003.44;4964040;28;97187;-63
2023/09/06 07:58:08;;;;;;;2.40;2.20;;;;;;;22.18;62.80;102007.53;4967131;28;97143;-63
2023/09/06 08:00:36;;;;;;;2.10;1.97;;;;;;;22.28;62.71;102000.16;4960918;28;96886;-63
2023/09/06 08:03:02;;;;;;;1.83;1.73;;;;;;;22.44;62.44;102008.75;4964849;28;97196;-63
2023/09/06 08:05:27;;;;;;;2.03;1.83;;;;;;;22.58;62.36;102002.59;4964573;28;96812;-63
2023/09/06 08:07:53;;;;;;;1.90;1.80;;;;;;;22.73;62.13;102010.44;4964029;28;101696;-63
2023/09/06 08:10:18;;;;;;;2.17;1.97;;;;;;;22.88;62.01;102002.16;4967808;28;98189;-63
2023/09/06 08:12:43;;;;;;;1.80;1.70;;;;;;;23.01;61.84;102007.72;4966182;28;96994;-63
2023/09/06 08:15:09;;;;;;;1.60;1.50;;;;;;;23.11;61.77;102009.50;4962655;28;110191;-63
2023/09/06 08:17:34;;;;;;;1.70;1.60;;;;;;;23.24;61.75;102008.66;4969570;28;97540;-63
2023/09/06 08:19:59;;;;;;;1.50;1.40;;;;;;;23.36;61.80;102009.94;4965413;28;96966;-63
2023/09/06 08:22:25;;;;;;;1.80;1.70;;;;;;;23.48;61.46;101999.19;4962340;28;97231;-63
2023/09/06 08:24:50;;;;;;;1.40;1.27;;;;;;;23.64;61.33;102007.16;4969581;28;97826;-63
2023/09/06 08:27:16;;;;;;;1.53;1.40;;;;;;;23.79;61.14;102003.69;4963736;28;100723;-63
2023/09/06 08:29:41;;;;;;;2.03;1.80;;;;;;;23.88;60.76;102016.47;4965528;28;97052;-63
2023/09/06 08:32:08;;;;;;;1.80;1.70;;;;;;;24.02;60.51;102004.56;4967067;28;97476;-63
2023/09/06 08:34:33;;;;;;;1.57;1.47;;;;;;;24.19;60.59;102009.75;4965757;28;97316;-63
2023/09/06 08:36:59;;;;;;;5.70;1.70;;;;;;;24.36;59.92;102005.13;4967123;28;97749;-63
2023/09/06 08:39:24;;;;;;;5.40;1.57;;;;;;;24.54;60.04;102003.31;4963760;28;97527;-63
2023/09/06 08:41:51;;;;;;;1.83;1.63;;;;;;;24.76;59.23;102004.72;4954289;28;97394;-62
2023/09/06 08:44:23;;;;;;;1.73;1.63;;;;;;;24.96;58.84;102010.19;4965408;28;97249;-63
2023/09/06 08:46:52;;;;;;;5.37;1.53;;;;;;;25.15;58.98;102007.00;4968471;28;97002;-62
2023/09/06 08:49:20;;;;;;;1.57;1.47;;;;;;;25.32;58.70;102007.19;4966487;28;97394;-62
2023/09/06 08:51:46;;;;;;;1.50;1.40;;;;;;;25.45;58.50;102006.28;4966398;28;97177;-63
2023/09/06 08:54:13;;;;;;;1.70;1.60;;;;;;;25.64;58.05;102006.66;4961735;28;97494;-63
2023/09/06 08:56:38;;;;;;;1.83;1.60;;;;;;;25.81;58.27;102018.84;4965311;28;96649;-63
2023/09/06 08:59:05;;;;;;;2.53;1.40;;;;;;;25.96;57.48;102013.16;4960522;28;98599;-62
2023/09/06 09:01:31;;;;;;;2.50;1.40;;;;;;;26.09;57.19;102009.38;4964135;28;97371;-62
2023/09/06 09:03:56;;;;;;;1.33;1.23;;;;;;;26.24;56.82;102009.31;4966902;28;98784;-62
2023/09/06 09:06:21;;;;;;;1.30;1.20;;;;;;;26.40;56.90;102005.13;4967901;28;97135;-62
2023/09/06 09:08:47;;;;;;;1.83;1.50;;;;;;;26.56;56.52;102006.53;4964062;28;96928;-62
2023/09/06 09:11:16;;;;;;;1.40;1.30;;;;;;;26.76;56.18;102012.47;4965437;28;97839;-63
2023/09/06 09:13:44;;;;;;;2.57;1.60;;;;;;;26.90;55.92;102005.97;4959798;28;97821;-62
2023/09/06 09:16:11;;;;;;;2.10;1.23;;;;;;;27.02;55.40;101998.53;4963060;28;97266;-62
2023/09/06 09:18:38;;;;;;;2.50;1.13;;;;;;;27.11;55.19;102003.56;4954045;28;97104;-63
2023/09/06 09:21:04;;;;;;;1.90;1.53;;;;;;;27.19;54.57;102003.50;4964199;28;97178;-62
2023/09/06 09:23:40;;;;;;;1.70;1.60;;;;;;;27.33;54.76;102005.44;4963489;28;97566;-62
2023/09/06 09:26:08;;;;;;;5.90;1.40;;;;;;;27.48;54.39;102001.03;4967153;28;97822;-62
2023/09/06 09:28:34;;;;;;;1.40;1.30;;;;;;;27.60;54.47;102011.25;4967544;28;96955;-62
2023/09/06 09:31:00;;;;;;;2.17;1.53;;;;;;;27.71;54.08;102005.13;4966152;28;97252;-62
2023/09/06 09:33:28;;;;;;;2.50;1.20;;;;;;;27.81;53.26;101999.53;4964857;28;100495;-62
2023/09/06 09:35:53;;;;;;;2.30;1.63;;;;;;;27.91;53.41;102003.97;4966036;28;97297;-62
2023/09/06 09:38:18;;;;;;;1.27;1.17;;;;;;;28.05;53.09;101999.47;4969163;28;97060;-61
2023/09/06 09:40:44;;;;;;;3.03;1.37;;;;;;;28.20;53.28;102007.78;4971031;28;97507;-61
2023/09/06 09:43:09;;;;;;;1.53;1.43;;;;;;;28.27;52.33;101999.78;4962997;28;110647;-61
2023/09/06 09:45:46;;;;;;;1.13;1.03;;;;;;;28.36;51.72;102002.69;4967785;28;97171;-61
2023/09/06 09:48:11;;;;;;;1.30;1.10;;;;;;;28.48;51.76;102008.56;4969606;28;97137;-62
2023/09/06 09:50:41;;;;;;;1.20;1.10;;;;;;;28.59;51.68;102008.06;4968375;28;96999;-62
2023/09/06 09:53:08;;;;;;;1.33;1.10;;;;;;;28.70;51.38;101999.75;4971125;28;96789;-62
2023/09/06 09:55:40;;;;;;;1.60;1.50;;;;;;;28.83;50.90;102005.03;4968511;28;97278;-62
2023/09/06 09:58:09;;;;;;;1.10;1.00;;;;;;;28.92;50.04;102003.59;4968249;28;97307;-62
2023/09/06 10:00:38;;;;;;;4.30;1.20;;;;;;;28.99;50.60;102005.56;4962978;28;97175;-61
2023/09/06 10:03:04;;;;;;;1.07;1.00;;;;;;;29.04;50.05;102006.63;4967993;28;98032;-61
2023/09/06 10:05:31;;;;;;;1.07;0.97;;;;;;;29.08;49.89;102004.09;4966509;28;97497;-62
2023/09/06 10:07:57;;;;;;;1.27;1.03;;;;;;;29.14;49.62;102002.47;4965969;28;96880;-62
2023/09/06 10:10:24;;;;;;;1.33;1.17;;;;;;;29.20;49.13;102020.00;4965862;28;96775;-62
2023/09/06 10:12:52;;;;;;;1.00;0.83;;;;;;;29.29;49.38;102007.91;4969578;28;99582;-61
2023/09/06 10:15:23;;;;;;;1.47;1.20;;;;;;;29.36;48.89;102009.13;4965198;28;100083;-62
2023/09/06 10:17:50;;;;;;;1.30;1.20;;;;;;;29.42;48.51;102004.66;4971086;28;96954;-62
2023/09/06 10:20:16;;;;;;;1.40;1.03;;;;;;;29.44;48.45;101996.31;4968003;28;96983;-62
2023/09/06 10:22:43;;;;;;;1.97;1.10;;;;;;;29.49;48.46;101991.69;4970937;28;96973;-61
2023/09/06 10:25:10;;;;;;;1.17;1.07;;;;;;;29.48;48.17;101988.13;4974299;28;97593;-62
2023/09/06 10:27:45;;;;;;;1.10;1.00;;;;;;;29.50;47.33;102007.38;4966566;28;97154;-62
2023/09/06 10:30:17;;;;;;;1.37;1.27;;;;;;;29.52;48.60;101994.09;4969056;28;97178;-61
2023/09/06 10:32:44;;;;;;;1.57;1.20;;;;;;;29.59;47.93;101993.22;4967017;28;97186;-61
2023/09/06 10:35:24;;;;;;;0.83;0.83;;;;;;;29.64;46.91;102016.97;4971692;28;97156;-62
2023/09/06 10:38:18;;;;;;;1.30;1.20;;;;;;;29.68;46.57;101992.47;4969799;28;96915;-62
2023/09/06 10:40:49;;;;;;;1.40;1.30;;;;;;;29.76;47.57;101994.44;4967636;28;97329;-62
2023/09/06 10:43:16;;;;;;;2.17;1.40;;;;;;;29.79;47.42;101999.69;4968036;28;97223;-62
2023/09/06 10:45:57;;;;;;;1.23;1.13;;;;;;;29.86;46.22;101995.94;4970179;28;96895;-61
2023/09/06 10:48:23;;;;;;;1.60;1.50;;;;;;;29.98;46.63;101999.69;4970285;28;97118;-62
2023/09/06 10:51:21;;;;;;;2.27;1.43;;;;;;;30.11;45.36;101998.47;4966938;28;97106;-61
2023/09/06 10:53:47;;;;;;;1.50;1.40;;;;;;;30.24;45.78;101993.09;4941315;28;97544;-61
2023/09/06 10:56:13;;;;;;;1.60;0.80;;;;;;;30.36;45.69;101996.81;4964371;28;96772;-61
2023/09/06 10:58:38;;;;;;;1.73;1.20;;;;;;;30.42;45.44;101985.16;4968922;28;97196;-61
2023/09/06 11:01:13;;;;;;;1.40;1.30;;;;;;;30.49;44.66;101992.00;4967510;28;97047;-62
2023/09/06 11:03:40;;;;;;;1.40;1.30;;;;;;;30.50;44.94;101991.41;4967008;28;97055;-61
2023/09/06 11:06:05;;;;;;;1.53;1.40;;;;;;;30.51;44.48;101990.06;4968445;28;96858;-62
2023/09/06 11:08:32;;;;;;;1.80;1.07;;;;;;;30.54;44.65;101990.94;4967107;28;97347;-62
2023/09/06 11:11:01;;;;;;;1.30;1.20;;;;;;;30.61;44.33;101990.78;4964147;28;97137;-62
2023/09/06 11:13:29;;;;;;;1.53;1.10;;;;;;;30.72;44.36;101986.53;4968604;28;99850;-61
2023/09/06 11:15:55;;;;;;;0.80;0.80;;;;;;;30.82;44.24;101996.53;4971048;28;97639;-62
2023/09/06 11:18:20;;;;;;;1.03;1.03;;;;;;;30.82;43.47;101990.13;4968417;28;97095;-61
2023/09/06 11:20:48;;;;;;;4.60;1.50;;;;;;;30.82;43.60;101996.53;4967603;28;97173;-62
2023/09/06 11:23:13;;;;;;;1.33;1.13;;;;;;;30.88;43.82;101999.84;4964790;28;97318;-62
2023/09/06 11:25:38;;;;;;;0.80;0.80;;;;;;;30.99;43.12;101999.19;4966683;28;96963;-62